createdAt,value
2023-01-17T00:02:17.939Z,74.84
2023-01-17T00:05:03.408Z,75.34
2023-01-17T00:07:52.134Z,75.34
2023-01-17T00:10:24.342Z,75.33
2023-01-17T00:13:00.074Z,75.35
2023-01-17T00:15:28.163Z,75.74
2023-01-17T00:18:01.713Z,75.97
2023-01-17T00:20:50.083Z,76.34
2023-01-17T00:23:41.517Z,76.26
2023-01-17T00:26:14.353Z,76.30
2023-01-17T00:28:42.282Z,76.35
2023-01-17T00:31:14.703Z,76.95
2023-01-17T00:33:41.421Z,77.33
2023-01-17T00:36:08.975Z,77.29
2023-01-17T00:38:39.833Z,77.27
2023-01-17T00:41:09.695Z,77.19
2023-01-17T00:43:55.076Z,76.72
2023-01-17T00:46:40.818Z,77.59
2023-01-17T00:49:26.970Z,77.74
2023-01-17T00:52:12.920Z,77.39
2023-01-17T00:54:58.275Z,77.37
2023-01-17T00:57:43.990Z,77.42
2023-01-17T01:00:36.042Z,77.83
2023-01-17T01:03:27.397Z,78.08
2023-01-17T01:06:15.254Z,78.26
2023-01-17T01:09:01.648Z,78.46
2023-01-17T01:11:50.472Z,78.15
2023-01-17T01:14:35.536Z,78.39
2023-01-17T01:17:21.259Z,78.50
2023-01-17T01:20:06.083Z,78.11
2023-01-17T01:22:51.380Z,78.46
2023-01-17T01:25:37.606Z,78.79
2023-01-17T01:28:31.806Z,79.11
2023-01-17T01:31:21.771Z,79.28
2023-01-17T01:33:51.565Z,79.79
2023-01-17T01:36:19.780Z,79.98
2023-01-17T01:38:46.478Z,79.74
2023-01-17T01:41:13.157Z,79.78
2023-01-17T01:43:47.537Z,79.52
2023-01-17T01:46:20.121Z,78.74
2023-01-17T01:49:05.140Z,78.41
2023-01-17T01:51:50.148Z,78.03
2023-01-17T01:54:23.602Z,78.21
2023-01-17T01:57:03.505Z,78.61
2023-01-17T01:59:32.280Z,78.98
2023-01-17T02:01:58.907Z,78.71
2023-01-17T02:04:32.878Z,78.63
2023-01-17T02:07:07.299Z,78.14
2023-01-17T02:09:34.631Z,78.60
2023-01-17T02:12:08.786Z,78.95
2023-01-17T02:14:35.325Z,79.10
2023-01-17T02:17:10.799Z,78.80
2023-01-17T02:19:51.248Z,78.67
2023-01-17T02:22:48.466Z,78.86
2023-01-17T02:25:36.858Z,78.95
2023-01-17T02:28:32.252Z,79.09
2023-01-17T02:31:24.545Z,79.51
2023-01-17T02:34:06.900Z,79.72
2023-01-17T02:36:37.979Z,79.42
2023-01-17T02:39:28.441Z,80.02
2023-01-17T02:42:02.392Z,80.42
2023-01-17T02:44:29.707Z,80.26
2023-01-17T02:46:58.228Z,80.20
2023-01-17T02:49:38.264Z,79.71
2023-01-17T02:52:06.180Z,80.23
2023-01-17T02:55:01.616Z,80.21
2023-01-17T02:57:51.909Z,79.51
2023-01-17T03:00:38.182Z,78.92
2023-01-17T03:03:18.022Z,78.62
2023-01-17T03:05:59.835Z,78.98
2023-01-17T03:08:27.686Z,78.03
2023-01-17T03:10:55.003Z,77.96
2023-01-17T03:13:24.631Z,77.83
2023-01-17T03:15:51.379Z,77.42
2023-01-17T03:18:18.069Z,77.17
2023-01-17T03:20:44.836Z,77.62
2023-01-17T03:23:14.862Z,77.63
2023-01-17T03:25:41.723Z,77.86
2023-01-17T03:28:14.053Z,78.36
2023-01-17T03:30:40.729Z,78.45
2023-01-17T03:33:07.476Z,78.94
2023-01-17T03:35:37.386Z,77.83
2023-01-17T03:38:04.005Z,78.45
2023-01-17T03:40:30.617Z,78.27
2023-01-17T03:42:57.692Z,77.85
2023-01-17T03:45:24.304Z,78.16
2023-01-17T03:47:51.463Z,78.07
2023-01-17T03:50:18.192Z,78.18
2023-01-17T03:52:44.808Z,77.76
2023-01-17T03:55:17.974Z,78.20
2023-01-17T03:57:44.749Z,77.60
2023-01-17T04:00:11.956Z,77.93
2023-01-17T04:02:38.624Z,77.72
2023-01-17T04:05:12.761Z,77.64
2023-01-17T04:07:39.312Z,77.05
2023-01-17T04:10:06.704Z,77.54
2023-01-17T04:12:36.399Z,77.08
2023-01-17T04:15:07.615Z,76.72
2023-01-17T04:17:34.309Z,76.95
2023-01-17T04:20:00.954Z,77.49
2023-01-17T04:22:27.583Z,77.07
2023-01-17T04:24:54.227Z,77.37
2023-01-17T04:27:20.890Z,77.59
2023-01-17T04:29:47.519Z,77.92
2023-01-17T04:32:14.868Z,78.45
2023-01-17T04:34:41.900Z,78.49
2023-01-17T04:37:11.281Z,78.35
2023-01-17T04:39:41.112Z,79.00
2023-01-17T04:42:07.752Z,78.97
2023-01-17T04:44:38.457Z,79.69
2023-01-17T04:47:06.656Z,79.51
2023-01-17T04:49:34.363Z,79.81
2023-01-17T04:52:00.856Z,80.07
2023-01-17T04:54:27.521Z,80.51
2023-01-17T04:56:54.152Z,80.71
2023-01-17T04:59:20.804Z,80.55
2023-01-17T05:01:49.532Z,80.58
2023-01-17T05:04:16.317Z,80.76
2023-01-17T05:06:47.481Z,80.69
2023-01-17T05:09:14.120Z,80.46
2023-01-17T05:11:40.727Z,81.03
2023-01-17T05:14:07.405Z,82.19
2023-01-17T05:16:34.005Z,84.04
2023-01-17T05:19:00.719Z,84.35
2023-01-17T05:21:27.477Z,84.46
2023-01-17T05:23:54.148Z,85.00
2023-01-17T05:26:20.810Z,85.71
2023-01-17T05:28:47.485Z,85.45
2023-01-17T05:31:14.306Z,85.37
2023-01-17T05:33:41.591Z,85.20
2023-01-17T05:36:08.976Z,85.41
2023-01-17T05:38:35.755Z,85.21
2023-01-17T05:41:04.759Z,84.96
2023-01-17T05:43:32.166Z,85.16
2023-01-17T05:45:58.846Z,84.88
2023-01-17T05:48:28.560Z,83.94
2023-01-17T05:50:57.639Z,84.13
2023-01-17T05:53:24.379Z,84.62
2023-01-17T05:55:51.260Z,84.24
2023-01-17T05:58:23.541Z,84.32
2023-01-17T06:00:50.354Z,84.30
2023-01-17T06:03:17.321Z,84.35
2023-01-17T06:05:45.018Z,84.62
2023-01-17T06:08:11.728Z,84.85
2023-01-17T06:10:38.453Z,84.19
2023-01-17T06:13:12.391Z,84.50
2023-01-17T06:15:51.389Z,84.51
2023-01-17T06:18:18.527Z,84.07
2023-01-17T06:20:45.590Z,84.30
2023-01-17T06:23:14.905Z,83.76
2023-01-17T06:25:46.058Z,83.78
2023-01-17T06:28:17.123Z,84.04
2023-01-17T06:30:46.830Z,83.93
2023-01-17T06:33:18.819Z,84.41
2023-01-17T06:35:53.228Z,83.67
2023-01-17T06:38:20.215Z,83.54
2023-01-17T06:40:47.819Z,82.72
2023-01-17T06:43:14.539Z,83.04
2023-01-17T06:45:42.828Z,83.66
2023-01-17T06:48:17.114Z,82.66
2023-01-17T06:50:43.999Z,82.77
2023-01-17T06:53:15.138Z,82.27
2023-01-17T06:55:55.668Z,82.26
2023-01-17T06:58:22.174Z,82.23
2023-01-17T07:00:48.909Z,82.15
2023-01-17T07:03:21.806Z,82.09
2023-01-17T07:05:58.734Z,82.10
2023-01-17T07:08:28.778Z,81.90
2023-01-17T07:11:05.297Z,80.79
2023-01-17T07:13:36.357Z,81.53
2023-01-17T07:16:04.691Z,81.50
2023-01-17T07:18:34.524Z,81.09
2023-01-17T07:21:04.014Z,81.63
2023-01-17T07:23:30.640Z,81.56
2023-01-17T07:25:59.534Z,80.96
2023-01-17T07:28:28.120Z,81.33
2023-01-17T07:30:54.863Z,81.67
2023-01-17T07:33:31.704Z,81.17
2023-01-17T07:35:59.083Z,81.74
2023-01-17T07:38:25.738Z,80.86
2023-01-17T07:40:52.358Z,81.19
2023-01-17T07:43:18.994Z,81.94
2023-01-17T07:45:52.093Z,81.97
2023-01-17T07:48:20.660Z,82.81
2023-01-17T07:51:01.375Z,83.56
2023-01-17T07:53:30.389Z,82.32
2023-01-17T07:56:04.726Z,82.17
2023-01-17T07:58:32.575Z,81.99
2023-01-17T08:01:07.714Z,81.57
2023-01-17T08:03:39.727Z,81.47
2023-01-17T08:06:25.984Z,80.63
2023-01-17T08:08:55.218Z,80.89
2023-01-17T08:11:21.944Z,80.55
2023-01-17T08:13:54.045Z,80.62
2023-01-17T08:16:20.772Z,80.66
2023-01-17T08:18:47.474Z,80.12
2023-01-17T08:21:16.811Z,79.01
2023-01-17T08:23:47.386Z,77.84
2023-01-17T08:26:21.516Z,77.46
2023-01-17T08:29:00.630Z,77.10
2023-01-17T08:31:35.441Z,76.95
2023-01-17T08:34:05.484Z,76.18
2023-01-17T08:36:32.383Z,75.70
2023-01-17T08:38:59.263Z,75.97
2023-01-17T08:41:29.292Z,75.61
2023-01-17T08:43:55.966Z,76.30
2023-01-17T08:46:29.991Z,76.19
2023-01-17T08:49:00.038Z,76.13
2023-01-17T08:51:28.037Z,75.88
2023-01-17T08:53:56.365Z,76.05
2023-01-17T08:56:27.052Z,74.77
2023-01-17T08:58:54.219Z,75.07
2023-01-17T09:01:20.936Z,74.67
2023-01-17T09:03:51.541Z,74.06
2023-01-17T09:06:18.417Z,74.21
2023-01-17T09:08:47.156Z,74.15
2023-01-17T09:11:20.227Z,73.81
2023-01-17T09:13:46.831Z,73.39
2023-01-17T09:16:13.772Z,73.24
2023-01-17T09:18:40.496Z,74.22
2023-01-17T09:21:21.370Z,74.51
2023-01-17T09:23:48.039Z,75.22
2023-01-17T09:26:28.573Z,75.25
2023-01-17T09:28:55.538Z,74.22
2023-01-17T09:31:22.801Z,73.92
2023-01-17T09:33:54.945Z,73.93
2023-01-17T09:36:22.278Z,73.78
2023-01-17T09:38:57.803Z,74.21
2023-01-17T09:41:30.570Z,74.32
2023-01-17T09:44:01.650Z,74.55
2023-01-17T09:46:36.680Z,74.91
2023-01-17T09:49:10.789Z,75.31
2023-01-17T09:51:37.421Z,76.50
2023-01-17T09:54:04.863Z,78.12
2023-01-17T09:56:41.900Z,79.01
2023-01-17T09:59:21.095Z,81.20
2023-01-17T10:02:25.827Z,82.10
2023-01-17T10:05:06.689Z,82.72
2023-01-17T10:07:41.953Z,82.74
2023-01-17T10:10:28.923Z,83.50
2023-01-17T10:13:10.277Z,83.87
2023-01-17T10:15:48.535Z,84.51
2023-01-17T10:18:33.599Z,85.05
2023-01-17T10:21:27.830Z,84.58
2023-01-17T10:24:21.211Z,83.29
2023-01-17T10:26:52.965Z,82.88
2023-01-17T10:29:21.293Z,81.77
2023-01-17T10:32:00.122Z,82.95
2023-01-17T10:34:47.924Z,82.77
2023-01-17T10:37:29.867Z,83.16
2023-01-17T10:40:02.582Z,83.01
2023-01-17T10:42:49.736Z,83.54
2023-01-17T10:45:31.555Z,82.23
2023-01-17T10:48:36.785Z,81.81
2023-01-17T10:51:49.987Z,81.57
2023-01-17T10:54:38.791Z,80.99
2023-01-17T10:57:05.636Z,81.17
2023-01-17T10:59:35.139Z,81.33
2023-01-17T11:02:07.585Z,80.85
2023-01-17T11:04:37.289Z,80.89
2023-01-17T11:07:22.273Z,81.32
2023-01-17T11:09:59.287Z,81.32
2023-01-17T11:12:45.897Z,80.73
2023-01-17T11:15:12.474Z,80.70
2023-01-17T11:17:50.051Z,80.68
2023-01-17T11:20:28.133Z,81.86
2023-01-17T11:23:12.856Z,83.25
2023-01-17T11:25:39.677Z,84.12
2023-01-17T11:28:17.967Z,85.28
2023-01-17T11:30:56.877Z,84.99
2023-01-17T11:33:56.870Z,85.18
2023-01-17T11:36:31.725Z,86.53
2023-01-17T11:39:05.087Z,84.94
2023-01-17T11:41:42.097Z,86.55
2023-01-17T11:44:31.675Z,87.94
2023-01-17T11:47:19.303Z,89.64
2023-01-17T11:49:50.401Z,90.40
2023-01-17T11:52:31.912Z,90.18
2023-01-17T11:54:59.265Z,91.00
2023-01-17T11:57:35.014Z,90.48
2023-01-17T12:00:24.245Z,90.10
2023-01-17T12:03:10.048Z,91.55
2023-01-17T12:05:58.109Z,90.47
2023-01-17T12:08:39.938Z,91.03
2023-01-17T12:11:12.751Z,90.81
2023-01-17T12:14:07.401Z,90.33
2023-01-17T12:16:55.931Z,90.54
2023-01-17T12:19:55.755Z,90.15
2023-01-17T12:22:48.555Z,89.16
2023-01-17T12:25:23.667Z,87.08
2023-01-17T12:27:59.974Z,86.12
2023-01-17T12:30:46.915Z,86.24
2023-01-17T12:33:13.400Z,82.76
2023-01-17T12:35:46.956Z,82.10
2023-01-17T12:38:31.749Z,78.67
2023-01-17T12:41:06.046Z,78.00
2023-01-17T12:43:38.122Z,77.67
2023-01-17T12:46:14.492Z,76.70
2023-01-17T12:48:44.691Z,76.49
2023-01-17T12:51:37.704Z,76.18
2023-01-17T12:54:18.095Z,76.23
2023-01-17T12:56:59.381Z,77.29
2023-01-17T12:59:32.793Z,75.17
2023-01-17T13:02:04.098Z,76.47
2023-01-17T13:04:33.833Z,75.86
2023-01-17T13:07:00.600Z,76.96
2023-01-17T13:09:35.275Z,76.37
2023-01-17T13:12:22.864Z,76.44
2023-01-17T13:14:49.771Z,75.94
2023-01-17T13:17:42.929Z,75.48
2023-01-17T13:20:28.878Z,76.47
2023-01-17T13:23:05.384Z,77.17
2023-01-17T13:25:41.459Z,76.89
2023-01-17T13:28:11.017Z,77.47
2023-01-17T13:30:57.826Z,77.41
2023-01-17T13:33:57.850Z,75.64
2023-01-17T13:36:46.348Z,76.61
2023-01-17T13:39:34.988Z,77.01
2023-01-17T13:42:10.976Z,78.09
2023-01-17T13:44:43.630Z,76.57
2023-01-17T13:47:10.239Z,76.68
2023-01-17T13:49:56.477Z,76.82
2023-01-17T13:52:25.974Z,76.90
2023-01-17T13:54:58.245Z,78.15
2023-01-17T13:57:40.756Z,77.66
2023-01-17T14:00:16.361Z,77.20
2023-01-17T14:02:48.421Z,78.19
2023-01-17T14:05:44.339Z,79.17
2023-01-17T14:08:20.650Z,78.04
2023-01-17T14:10:54.627Z,78.21
2023-01-17T14:13:32.823Z,78.38
2023-01-17T14:16:01.212Z,77.92
2023-01-17T14:18:41.126Z,78.64
2023-01-17T14:21:27.657Z,78.45
2023-01-17T14:23:54.374Z,77.17
2023-01-17T14:26:32.751Z,78.20
2023-01-17T14:29:37.640Z,76.91
2023-01-17T14:32:07.069Z,76.99
2023-01-17T14:34:34.776Z,76.58
2023-01-17T14:37:15.944Z,76.52
2023-01-17T14:39:53.421Z,76.96
2023-01-17T14:42:23.940Z,77.59
2023-01-17T14:45:04.345Z,77.78
2023-01-17T14:47:36.039Z,76.85
2023-01-17T14:50:20.455Z,76.51
2023-01-17T14:53:08.314Z,77.12
2023-01-17T14:55:35.713Z,76.54
2023-01-17T14:58:02.462Z,76.85
2023-01-17T15:00:30.635Z,76.93
2023-01-17T15:03:00.156Z,77.34
2023-01-17T15:05:28.996Z,76.61
2023-01-17T15:07:57.745Z,77.31
2023-01-17T15:10:29.680Z,77.86
2023-01-17T15:13:09.812Z,77.79
2023-01-17T15:15:39.820Z,77.54
2023-01-17T15:18:19.464Z,78.83
2023-01-17T15:21:02.296Z,79.08
2023-01-17T15:23:46.013Z,79.59
2023-01-17T15:26:21.865Z,79.72
2023-01-17T15:28:49.734Z,80.51
2023-01-17T15:31:25.955Z,80.55
2023-01-17T15:33:59.851Z,80.53
2023-01-17T15:36:33.200Z,81.77
2023-01-17T15:39:08.538Z,81.37
2023-01-17T15:41:42.684Z,81.89
2023-01-17T15:44:22.025Z,81.85
2023-01-17T15:46:51.022Z,82.53
2023-01-17T15:49:23.543Z,83.18
2023-01-17T15:52:08.762Z,83.63
2023-01-17T15:54:40.475Z,84.49
2023-01-17T15:57:27.393Z,84.71
2023-01-17T15:59:53.944Z,84.88
2023-01-17T16:02:30.225Z,84.75
2023-01-17T16:05:15.486Z,83.92
2023-01-17T16:07:42.176Z,83.09
2023-01-17T16:10:18.135Z,83.51
2023-01-17T16:12:46.535Z,83.88
2023-01-17T16:15:14.391Z,83.71
2023-01-17T16:17:48.524Z,84.40
2023-01-17T16:20:29.607Z,84.74
2023-01-17T16:22:56.512Z,84.31
2023-01-17T16:25:32.438Z,84.07
2023-01-17T16:28:08.628Z,84.77
2023-01-17T16:30:35.397Z,85.21
2023-01-17T16:33:03.187Z,85.74
2023-01-17T16:35:31.401Z,85.68
2023-01-17T16:38:01.198Z,87.69
2023-01-17T16:40:34.606Z,87.74
2023-01-17T16:43:01.509Z,87.45
2023-01-17T16:45:33.371Z,87.68
2023-01-17T16:48:02.119Z,87.95
2023-01-17T16:50:28.740Z,88.18
2023-01-17T16:52:57.011Z,87.77
2023-01-17T16:55:25.418Z,88.00
2023-01-17T16:57:58.734Z,89.07
2023-01-17T17:00:26.868Z,88.59
2023-01-17T17:03:02.851Z,88.90
2023-01-17T17:05:30.713Z,88.83
2023-01-17T17:07:57.599Z,89.00
2023-01-17T17:10:25.432Z,88.91
2023-01-17T17:12:55.344Z,89.65
2023-01-17T17:15:21.970Z,89.23
2023-01-17T17:17:48.723Z,89.67
2023-01-17T17:20:24.520Z,89.98
2023-01-17T17:22:52.204Z,90.16
2023-01-17T17:25:19.492Z,90.27
2023-01-17T17:27:46.159Z,90.41
2023-01-17T17:30:13.071Z,90.43
2023-01-17T17:32:45.013Z,90.70
2023-01-17T17:35:11.962Z,90.97
2023-01-17T17:37:38.653Z,91.11
2023-01-17T17:40:09.213Z,91.04
2023-01-17T17:42:35.841Z,91.65
2023-01-17T17:45:02.681Z,91.46
2023-01-17T17:47:33.508Z,91.75
2023-01-17T17:50:00.189Z,91.49
2023-01-17T17:52:28.159Z,93.10
2023-01-17T17:54:54.948Z,93.77
2023-01-17T17:57:22.729Z,93.57
2023-01-17T17:59:49.428Z,93.09
2023-01-17T18:02:16.646Z,93.29
2023-01-17T18:04:43.313Z,92.60
2023-01-17T18:07:09.975Z,92.94
2023-01-17T18:09:36.569Z,92.75
2023-01-17T18:12:03.570Z,92.93
2023-01-17T18:14:33.328Z,92.82
2023-01-17T18:17:00.295Z,93.02
2023-01-17T18:19:27.174Z,93.06
2023-01-17T18:21:54.428Z,92.96
2023-01-17T18:24:23.430Z,93.05
2023-01-17T18:26:57.226Z,93.63
2023-01-17T18:29:25.565Z,94.15
2023-01-17T18:31:53.728Z,93.46
2023-01-17T18:34:24.393Z,94.26
2023-01-17T18:36:51.960Z,94.29
2023-01-17T18:39:25.299Z,94.05
2023-01-17T18:41:52.554Z,93.68
2023-01-17T18:44:22.674Z,93.67
2023-01-17T18:46:58.236Z,93.60
2023-01-17T18:49:25.004Z,93.42
2023-01-17T18:51:51.957Z,94.11
2023-01-17T18:54:20.305Z,93.90
2023-01-17T18:56:49.366Z,94.99
2023-01-17T18:59:18.569Z,94.46
2023-01-17T19:01:45.906Z,94.29
2023-01-17T19:04:17.450Z,94.29
2023-01-17T19:06:46.613Z,93.90
2023-01-17T19:09:14.799Z,94.24
2023-01-17T19:11:46.328Z,94.25
2023-01-17T19:14:13.381Z,94.08
2023-01-17T19:16:43.945Z,94.24
2023-01-17T19:19:14.045Z,94.38
2023-01-17T19:21:40.959Z,94.18
2023-01-17T19:24:08.268Z,94.29
2023-01-17T19:26:34.934Z,94.09
2023-01-17T19:29:05.380Z,94.23
2023-01-17T19:31:37.349Z,94.22
2023-01-17T19:34:06.867Z,94.54
2023-01-17T19:36:35.761Z,94.75
2023-01-17T19:39:06.510Z,94.86
2023-01-17T19:41:35.664Z,94.42
2023-01-17T19:44:08.002Z,94.54
2023-01-17T19:46:35.349Z,94.47
2023-01-17T19:49:06.296Z,94.46
2023-01-17T19:51:33.016Z,94.61
2023-01-17T19:54:04.198Z,94.64
2023-01-17T19:56:31.165Z,94.90
2023-01-17T19:59:01.350Z,94.80
2023-01-17T20:01:31.258Z,94.82
2023-01-17T20:03:58.842Z,94.56
2023-01-17T20:06:33.338Z,95.08
2023-01-17T20:09:01.457Z,95.12
2023-01-17T20:11:28.639Z,95.12
2023-01-17T20:13:57.769Z,94.95
2023-01-17T20:16:26.876Z,95.18
2023-01-17T20:18:53.700Z,95.12
2023-01-17T20:21:26.056Z,93.67
2023-01-17T20:23:54.593Z,93.56
2023-01-17T20:26:31.214Z,93.65
2023-01-17T20:28:58.004Z,94.35
2023-01-17T20:31:28.663Z,94.29
2023-01-17T20:33:56.508Z,94.90
2023-01-17T20:36:26.928Z,96.02
2023-01-17T20:38:54.549Z,95.09
2023-01-17T20:41:23.846Z,95.00
2023-01-17T20:43:53.369Z,94.89
2023-01-17T20:46:22.589Z,94.70
2023-01-17T20:48:54.371Z,95.08
2023-01-17T20:51:22.270Z,95.67
2023-01-17T20:53:56.050Z,95.81
2023-01-17T20:56:24.221Z,95.88
2023-01-17T20:58:54.965Z,95.48
2023-01-17T21:01:24.896Z,95.41
2023-01-17T21:03:54.051Z,95.64
2023-01-17T21:06:22.494Z,95.04
2023-01-17T21:08:59.068Z,95.01
2023-01-17T21:11:28.828Z,95.29
2023-01-17T21:13:56.343Z,95.06
2023-01-17T21:16:23.819Z,95.51
2023-01-17T21:18:51.927Z,95.30
2023-01-17T21:21:23.962Z,95.54
2023-01-17T21:23:52.518Z,95.78
2023-01-17T21:26:20.627Z,95.41
2023-01-17T21:28:48.790Z,95.60
2023-01-17T21:31:24.329Z,95.59
2023-01-17T21:33:59.568Z,95.69
2023-01-17T21:36:29.637Z,96.26
2023-01-17T21:38:59.447Z,96.19
2023-01-17T21:41:29.067Z,95.90
2023-01-17T21:44:00.683Z,95.88
2023-01-17T21:46:28.824Z,95.75
2023-01-17T21:48:58.857Z,95.57
2023-01-17T21:51:45.911Z,95.20
2023-01-17T21:54:15.516Z,94.91
2023-01-17T21:57:03.176Z,95.33
2023-01-17T21:59:32.929Z,95.52
2023-01-17T22:02:03.079Z,95.03
2023-01-17T22:04:30.025Z,95.07
2023-01-17T22:06:56.701Z,95.26
2023-01-17T22:09:23.349Z,94.68
2023-01-17T22:11:49.996Z,95.20
2023-01-17T22:14:16.668Z,95.45
2023-01-17T22:16:43.577Z,95.55
2023-01-17T22:19:10.259Z,95.79
2023-01-17T22:21:37.467Z,95.61
2023-01-17T22:24:05.333Z,96.41
2023-01-17T22:26:32.154Z,95.20
2023-01-17T22:29:05.379Z,95.46
2023-01-17T22:31:32.067Z,95.54
2023-01-17T22:34:04.238Z,95.70
2023-01-17T22:36:35.022Z,94.98
2023-01-17T22:39:02.128Z,95.36
2023-01-17T22:41:37.422Z,95.62
2023-01-17T22:44:11.329Z,95.04
2023-01-17T22:46:39.276Z,95.04
2023-01-17T22:49:08.853Z,95.49
2023-01-17T22:51:46.009Z,95.53
2023-01-17T22:54:13.195Z,95.63
2023-01-17T22:56:39.940Z,95.20
2023-01-17T22:59:11.733Z,94.17
2023-01-17T23:01:41.708Z,94.42
2023-01-17T23:04:16.080Z,94.74
2023-01-17T23:06:42.947Z,94.78
2023-01-17T23:09:19.812Z,94.52
2023-01-17T23:11:53.612Z,95.04
2023-01-17T23:14:28.602Z,95.71
2023-01-17T23:17:21.410Z,95.82
2023-01-17T23:19:53.153Z,94.42
2023-01-17T23:22:27.014Z,93.65
2023-01-17T23:25:04.176Z,92.96
2023-01-17T23:27:58.870Z,93.51
2023-01-17T23:30:34.874Z,94.18
2023-01-17T23:33:04.505Z,94.66
2023-01-17T23:35:41.769Z,94.65
2023-01-17T23:38:29.459Z,94.53
2023-01-17T23:41:24.898Z,94.95
2023-01-17T23:43:53.581Z,94.92
2023-01-17T23:46:31.632Z,94.58
2023-01-17T23:49:05.324Z,94.42
2023-01-17T23:51:35.154Z,94.58
2023-01-17T23:54:05.882Z,94.79
2023-01-17T23:56:33.758Z,94.85
2023-01-17T23:59:02.295Z,95.27
